Time;durP1;ratioP1;P1;durP2;ratioP2;P2;SDS_P1;SDS_P2;PMS_P1;PMS_P2;Temp;Humidity;BMP_temperature;BMP_pressure;BME280_temperature;BME280_humidity;BME280_pressure;Samples;Min_cycle;Max_cycle;Signal;HPM_P1;HPM_P2
2024/02/06 00:00:31;;;;;;;1.73;1.30;;;;;;;;;;5021755;28;20134;-63
2024/02/06 00:03:00;;;;;;;1.55;0.70;;;;;;;;;;5025499;28;20055;-61
2024/02/06 00:05:28;;;;;;;1.67;0.90;;;;;;;;;;5030374;28;20066;-64
2024/02/06 00:07:57;;;;;;;2.03;1.05;;;;;;;;;;5030447;28;20155;-63
2024/02/06 00:10:26;;;;;;;1.67;1.30;;;;;;;;;;5029892;28;20048;-63
2024/02/06 00:12:54;;;;;;;3.42;0.90;;;;;;;;;;5028010;28;20383;-60
2024/02/06 00:15:23;;;;;;;2.10;1.00;;;;;;;;;;5020949;28;20103;-62
2024/02/06 00:17:51;;;;;;;0.88;0.70;;;;;;;;;;5022921;28;20041;-63
2024/02/06 00:20:20;;;;;;;1.65;0.70;;;;;;;;;;5022461;28;20516;-65
2024/02/06 00:22:49;;;;;;;2.90;1.23;;;;;;;;;;5022991;28;21206;-64
2024/02/06 00:25:18;;;;;;;2.65;0.80;;;;;;;;;;5019772;28;20069;-62
2024/02/06 00:27:47;;;;;;;2.35;1.02;;;;;;;;;;5024190;28;20042;-63
2024/02/06 00:30:15;;;;;;;2.38;0.90;;;;;;;;;;5018318;28;20056;-64
2024/02/06 00:32:44;;;;;;;2.00;1.00;;;;;;;;;;5020151;28;20046;-66
2024/02/06 00:35:13;;;;;;;1.65;0.60;;;;;;;;;;5021095;28;20153;-72
2024/02/06 00:37:44;;;;;;;1.50;0.95;;;;;;;;;;5020749;28;20053;-61
2024/02/06 00:40:12;;;;;;;2.15;0.95;;;;;;;;;;5021050;28;20410;-62
2024/02/06 00:42:43;;;;;;;0.80;0.77;;;;;;;;;;5021384;28;20517;-64
2024/02/06 00:45:12;;;;;;;2.85;1.10;;;;;;;;;;5020867;28;20099;-66
2024/02/06 00:47:40;;;;;;;2.67;1.08;;;;;;;;;;5019710;28;20198;-63
2024/02/06 00:50:09;;;;;;;2.05;1.02;;;;;;;;;;5022529;28;20084;-63
2024/02/06 00:52:38;;;;;;;1.67;0.80;;;;;;;;;;5030839;28;20061;-65
2024/02/06 00:55:06;;;;;;;4.05;0.90;;;;;;;;;;5027901;28;20049;-65
2024/02/06 00:57:35;;;;;;;1.73;0.90;;;;;;;;;;5029771;28;20045;-64
2024/02/06 01:00:07;;;;;;;1.63;0.70;;;;;;;;;;5029111;28;20392;-64
2024/02/06 01:02:35;;;;;;;4.03;1.45;;;;;;;;;;5030418;28;20431;-62
2024/02/06 01:05:04;;;;;;;1.63;1.10;;;;;;;;;;5028661;28;20057;-62
2024/02/06 01:07:32;;;;;;;3.30;0.95;;;;;;;;;;5028710;28;20091;-66
2024/02/06 01:10:02;;;;;;;3.53;0.90;;;;;;;;;;5020133;28;20049;-69
2024/02/06 01:12:30;;;;;;;2.65;1.23;;;;;;;;;;5025693;28;20038;-64
2024/02/06 01:14:59;;;;;;;3.47;0.82;;;;;;;;;;5028815;28;20051;-63
2024/02/06 01:17:29;;;;;;;1.38;0.70;;;;;;;;;;5029117;28;20045;-63
2024/02/06 01:19:57;;;;;;;2.75;1.17;;;;;;;;;;5024647;28;20050;-63
2024/02/06 01:22:26;;;;;;;2.13;0.65;;;;;;;;;;5017575;28;20049;-72
2024/02/06 01:24:55;;;;;;;1.55;0.70;;;;;;;;;;5021933;28;20451;-63
2024/02/06 01:27:23;;;;;;;3.45;0.90;;;;;;;;;;5021091;28;20049;-64
2024/02/06 01:29:52;;;;;;;1.95;0.70;;;;;;;;;;5019767;28;20099;-64
2024/02/06 01:32:20;;;;;;;1.35;0.80;;;;;;;;;;5021238;28;20045;-63
2024/02/06 01:34:50;;;;;;;3.85;0.75;;;;;;;;;;5020038;28;20148;-61
2024/02/06 01:37:18;;;;;;;2.22;1.10;;;;;;;;;;5019934;28;20057;-63
2024/02/06 01:39:47;;;;;;;1.58;0.88;;;;;;;;;;5019442;28;20061;-62
2024/02/06 01:42:15;;;;;;;2.35;0.88;;;;;;;;;;5020659;28;20041;-64
2024/02/06 01:44:44;;;;;;;2.97;0.98;;;;;;;;;;5022260;28;20096;-60
2024/02/06 01:47:12;;;;;;;2.55;0.90;;;;;;;;;;5018257;28;21402;-63
2024/02/06 01:49:41;;;;;;;4.15;1.15;;;;;;;;;;5020836;28;20077;-62
2024/02/06 01:52:11;;;;;;;4.00;1.23;;;;;;;;;;5019836;28;20076;-64
2024/02/06 01:54:39;;;;;;;3.58;0.95;;;;;;;;;;5021764;28;20140;-60
2024/02/06 01:57:08;;;;;;;5.13;1.25;;;;;;;;;;5020134;28;20138;-62
2024/02/06 01:59:36;;;;;;;0.90;0.60;;;;;;;;;;5020507;28;20052;-61
2024/02/06 02:02:05;;;;;;;0.70;0.55;;;;;;;;;;5022610;28;20045;-64
2024/02/06 02:04:34;;;;;;;1.70;0.80;;;;;;;;;;5018564;28;20493;-65
2024/02/06 02:07:03;;;;;;;1.13;0.73;;;;;;;;;;5018557;28;20060;-60
2024/02/06 02:09:32;;;;;;;3.50;0.80;;;;;;;;;;5022857;28;20058;-60
2024/02/06 02:12:01;;;;;;;1.42;1.02;;;;;;;;;;5026537;28;20080;-65
2024/02/06 02:14:29;;;;;;;2.30;0.75;;;;;;;;;;5027370;28;20060;-63
2024/02/06 02:16:57;;;;;;;2.15;0.90;;;;;;;;;;5017966;28;20128;-64
2024/02/06 02:19:26;;;;;;;3.70;0.95;;;;;;;;;;5021183;28;20057;-63
2024/02/06 02:21:56;;;;;;;1.02;0.73;;;;;;;;;;5018830;28;20046;-64
2024/02/06 02:24:24;;;;;;;3.03;0.82;;;;;;;;;;5018253;28;20123;-65
2024/02/06 02:26:53;;;;;;;1.52;0.77;;;;;;;;;;5018414;28;20053;-65
2024/02/06 02:29:22;;;;;;;1.98;0.70;;;;;;;;;;5019319;28;20050;-62
2024/02/06 02:31:52;;;;;;;2.03;0.80;;;;;;;;;;5020715;28;20127;-63
2024/02/06 02:34:21;;;;;;;1.85;0.90;;;;;;;;;;5021404;28;20057;-64
2024/02/06 02:36:50;;;;;;;1.60;0.82;;;;;;;;;;5016158;28;20081;-64
2024/02/06 02:39:20;;;;;;;1.75;0.65;;;;;;;;;;5019281;28;20046;-67
2024/02/06 02:41:48;;;;;;;1.75;0.75;;;;;;;;;;5020140;28;20474;-64
2024/02/06 02:44:17;;;;;;;1.38;0.75;;;;;;;;;;5020548;28;20391;-62
2024/02/06 02:46:45;;;;;;;1.58;1.00;;;;;;;;;;5017333;28;20064;-63
2024/02/06 02:49:14;;;;;;;0.70;0.50;;;;;;;;;;5019141;28;20065;-65
2024/02/06 02:51:42;;;;;;;0.98;0.70;;;;;;;;;;5017933;28;20038;-72
2024/02/06 02:54:11;;;;;;;1.63;0.80;;;;;;;;;;5021484;28;20498;-64
2024/02/06 02:56:41;;;;;;;1.50;0.70;;;;;;;;;;5018463;28;20085;-64
2024/02/06 02:59:09;;;;;;;1.50;0.80;;;;;;;;;;5020417;28;20045;-63
2024/02/06 03:01:38;;;;;;;0.63;0.60;;;;;;;;;;5017704;28;20077;-69
2024/02/06 03:04:06;;;;;;;3.58;0.98;;;;;;;;;;5021220;28;20065;-62
2024/02/06 03:06:36;;;;;;;1.95;0.80;;;;;;;;;;5019630;28;20060;-62
2024/02/06 03:09:04;;;;;;;1.25;0.82;;;;;;;;;;5018737;28;20076;-63
2024/02/06 03:11:33;;;;;;;1.50;0.80;;;;;;;;;;5020386;28;20046;-61
2024/02/06 03:14:02;;;;;;;1.50;0.77;;;;;;;;;;5021292;28;20053;-62
2024/02/06 03:16:31;;;;;;;1.67;0.88;;;;;;;;;;5018216;28;20049;-62
2024/02/06 03:18:59;;;;;;;3.60;1.25;;;;;;;;;;5018655;28;20048;-65
2024/02/06 03:21:28;;;;;;;0.70;0.70;;;;;;;;;;5020633;28;20084;-63
2024/02/06 03:23:56;;;;;;;1.42;0.70;;;;;;;;;;5023284;28;20100;-63
2024/02/06 03:26:25;;;;;;;2.03;0.93;;;;;;;;;;5024898;28;20754;-64
2024/02/06 03:28:53;;;;;;;1.70;0.80;;;;;;;;;;5020542;28;20437;-61
2024/02/06 03:31:23;;;;;;;2.90;0.80;;;;;;;;;;5020741;28;20053;-62
2024/02/06 03:33:51;;;;;;;3.50;1.17;;;;;;;;;;5023165;28;20068;-62
2024/02/06 03:36:20;;;;;;;1.90;0.90;;;;;;;;;;5020800;28;20099;-62
2024/02/06 03:38:49;;;;;;;0.93;0.70;;;;;;;;;;5022937;28;20566;-63
2024/02/06 03:41:17;;;;;;;1.52;0.90;;;;;;;;;;5022167;28;20091;-64
2024/02/06 03:43:45;;;;;;;1.52;0.80;;;;;;;;;;5021888;28;20245;-63
2024/02/06 03:46:14;;;;;;;5.68;0.93;;;;;;;;;;5024395;28;20045;-62
2024/02/06 03:48:44;;;;;;;1.27;0.73;;;;;;;;;;5023266;28;20243;-61
2024/02/06 03:51:13;;;;;;;1.58;0.90;;;;;;;;;;5022408;28;20061;-63
2024/02/06 03:53:41;;;;;;;2.30;0.70;;;;;;;;;;5019762;28;20052;-65
2024/02/06 03:56:09;;;;;;;2.47;0.93;;;;;;;;;;5021967;28;20490;-63
2024/02/06 03:58:38;;;;;;;2.53;0.80;;;;;;;;;;5021704;28;20073;-67
2024/02/06 04:01:07;;;;;;;2.55;0.80;;;;;;;;;;5021298;28;20081;-60
2024/02/06 04:03:35;;;;;;;2.42;0.98;;;;;;;;;;5022712;28;20123;-64
2024/02/06 04:06:06;;;;;;;3.08;0.82;;;;;;;;;;5020161;28;20061;-62
2024/02/06 04:08:35;;;;;;;1.77;1.00;;;;;;;;;;5022847;28;20053;-64
2024/02/06 04:11:04;;;;;;;2.63;0.68;;;;;;;;;;5022750;28;20103;-62
2024/02/06 04:13:33;;;;;;;1.23;0.95;;;;;;;;;;5022631;28;20497;-61
2024/02/06 04:16:01;;;;;;;2.47;0.90;;;;;;;;;;5023533;28;20096;-61
2024/02/06 04:18:30;;;;;;;1.60;0.80;;;;;;;;;;5023544;28;20046;-64
2024/02/06 04:20:58;;;;;;;2.58;0.80;;;;;;;;;;5021415;28;20458;-65
2024/02/06 04:23:28;;;;;;;2.70;1.08;;;;;;;;;;5020594;28;20502;-61
2024/02/06 04:25:56;;;;;;;5.22;1.48;;;;;;;;;;5023475;28;20490;-68
2024/02/06 04:28:25;;;;;;;2.67;0.80;;;;;;;;;;5022619;28;20045;-63
2024/02/06 04:30:53;;;;;;;0.80;0.80;;;;;;;;;;5021221;28;20083;-65
2024/02/06 04:33:22;;;;;;;1.25;0.70;;;;;;;;;;5020105;28;20467;-66
2024/02/06 04:35:50;;;;;;;2.78;0.82;;;;;;;;;;5021559;28;20053;-68
2024/02/06 04:38:19;;;;;;;3.72;1.00;;;;;;;;;;5026325;28;20103;-62
2024/02/06 04:40:48;;;;;;;3.10;0.95;;;;;;;;;;5030013;28;20080;-64
2024/02/06 04:43:17;;;;;;;5.15;0.90;;;;;;;;;;5030586;28;20045;-63
2024/02/06 04:45:46;;;;;;;2.50;0.88;;;;;;;;;;5029317;28;20068;-63
2024/02/06 04:48:14;;;;;;;5.80;1.13;;;;;;;;;;5027913;28;20056;-65
2024/02/06 04:50:42;;;;;;;3.15;0.82;;;;;;;;;;5029017;28;20099;-63
2024/02/06 04:53:11;;;;;;;4.03;0.85;;;;;;;;;;5030241;28;20049;-63
2024/02/06 04:55:39;;;;;;;3.50;0.98;;;;;;;;;;5029497;28;20041;-66
2024/02/06 04:58:09;;;;;;;0.77;0.70;;;;;;;;;;5029406;28;20045;-66
2024/02/06 05:00:37;;;;;;;2.92;1.00;;;;;;;;;;5025139;28;20274;-64
2024/02/06 05:03:06;;;;;;;3.22;1.13;;;;;;;;;;5026253;28;20564;-69
2024/02/06 05:05:36;;;;;;;3.97;0.90;;;;;;;;;;5026880;28;20056;-63
2024/02/06 05:08:04;;;;;;;2.58;1.00;;;;;;;;;;5029684;28;20089;-66
2024/02/06 05:10:33;;;;;;;2.83;0.90;;;;;;;;;;5022659;28;20076;-66
2024/02/06 05:13:01;;;;;;;1.95;0.80;;;;;;;;;;5021718;28;20178;-64
2024/02/06 05:15:31;;;;;;;1.45;0.85;;;;;;;;;;5017943;28;20045;-64
2024/02/06 05:18:00;;;;;;;2.88;0.80;;;;;;;;;;5019031;28;20050;-71
2024/02/06 05:20:28;;;;;;;2.95;1.23;;;;;;;;;;5021242;28;20045;-67
2024/02/06 05:22:57;;;;;;;2.22;0.80;;;;;;;;;;5019151;28;20053;-67
2024/02/06 05:25:25;;;;;;;1.13;0.68;;;;;;;;;;5019028;28;20482;-64
2024/02/06 05:27:53;;;;;;;1.38;0.80;;;;;;;;;;5021851;28;20056;-66
2024/02/06 05:30:23;;;;;;;1.25;0.90;;;;;;;;;;5020157;28;20057;-63
2024/02/06 05:32:52;;;;;;;0.90;0.73;;;;;;;;;;5019090;28;20494;-67
2024/02/06 05:35:21;;;;;;;2.30;0.75;;;;;;;;;;5018716;28;20144;-66
2024/02/06 05:37:49;;;;;;;2.10;0.90;;;;;;;;;;5018837;28;20041;-67
2024/02/06 05:40:18;;;;;;;1.60;0.73;;;;;;;;;;5024535;28;20549;-65
2024/02/06 05:42:47;;;;;;;2.75;0.98;;;;;;;;;;5020571;28;20095;-62
2024/02/06 05:45:16;;;;;;;3.08;1.00;;;;;;;;;;5021242;28;20143;-65
2024/02/06 05:47:44;;;;;;;2.25;0.80;;;;;;;;;;5019892;28;20062;-74
2024/02/06 05:50:14;;;;;;;2.15;0.85;;;;;;;;;;5020574;28;20068;-70
2024/02/06 05:52:43;;;;;;;6.30;1.10;;;;;;;;;;5018149;28;20060;-64
2024/02/06 05:55:11;;;;;;;4.88;1.02;;;;;;;;;;5018891;28;20042;-63
2024/02/06 05:57:40;;;;;;;3.90;1.10;;;;;;;;;;5017249;28;20046;-64
2024/02/06 06:00:09;;;;;;;3.70;0.88;;;;;;;;;;5019070;28;20045;-66
2024/02/06 06:02:38;;;;;;;3.28;1.00;;;;;;;;;;5020864;28;20049;-67
2024/02/06 06:05:07;;;;;;;4.53;0.80;;;;;;;;;;5026986;28;20432;-63
2024/02/06 06:07:37;;;;;;;3.35;0.93;;;;;;;;;;5028292;28;20084;-62
2024/02/06 06:10:06;;;;;;;2.03;1.02;;;;;;;;;;5027094;28;20049;-66
2024/02/06 06:12:35;;;;;;;1.77;0.98;;;;;;;;;;5025267;28;20049;-66
2024/02/06 06:15:03;;;;;;;4.25;1.27;;;;;;;;;;5026056;28;20095;-65
2024/02/06 06:17:32;;;;;;;2.40;1.00;;;;;;;;;;5027492;28;20548;-63
2024/02/06 06:20:00;;;;;;;3.40;1.10;;;;;;;;;;5028115;28;20038;-62
2024/02/06 06:22:29;;;;;;;1.88;1.00;;;;;;;;;;5028689;28;20107;-64
2024/02/06 06:24:58;;;;;;;4.78;1.52;;;;;;;;;;5031614;28;20091;-66
2024/02/06 06:27:27;;;;;;;4.47;1.40;;;;;;;;;;5023433;28;20056;-68
2024/02/06 06:29:55;;;;;;;3.85;1.45;;;;;;;;;;5032044;28;20141;-65
2024/02/06 06:32:24;;;;;;;2.90;1.90;;;;;;;;;;5029153;28;20054;-62
2024/02/06 06:34:52;;;;;;;5.00;1.83;;;;;;;;;;5026476;28;20048;-64
2024/02/06 06:37:21;;;;;;;5.05;1.70;;;;;;;;;;5026889;28;20049;-65
2024/02/06 06:39:49;;;;;;;6.10;2.20;;;;;;;;;;5020871;28;20078;-65
2024/02/06 06:42:19;;;;;;;3.28;1.70;;;;;;;;;;5025495;28;20081;-65
2024/02/06 06:44:48;;;;;;;4.25;2.10;;;;;;;;;;5027668;28;20399;-66
2024/02/06 06:47:16;;;;;;;4.68;2.15;;;;;;;;;;5028283;28;20498;-64
2024/02/06 06:49:44;;;;;;;7.07;2.63;;;;;;;;;;5027763;28;20049;-64
2024/02/06 06:52:13;;;;;;;5.75;2.38;;;;;;;;;;5025055;28;20042;-67
2024/02/06 06:54:41;;;;;;;6.40;2.28;;;;;;;;;;5025428;28;20095;-63
2024/02/06 06:57:12;;;;;;;3.97;2.33;;;;;;;;;;5032753;28;20068;-63
2024/02/06 06:59:43;;;;;;;4.63;2.33;;;;;;;;;;5031053;28;20041;-66
2024/02/06 07:02:11;;;;;;;7.38;3.30;;;;;;;;;;5027943;28;20486;-64
2024/02/06 07:04:40;;;;;;;7.53;3.50;;;;;;;;;;5031034;28;20049;-68
2024/02/06 07:07:09;;;;;;;5.40;2.88;;;;;;;;;;5032571;28;20079;-65
2024/02/06 07:09:38;;;;;;;6.32;3.20;;;;;;;;;;5030177;28;20085;-67
2024/02/06 07:12:06;;;;;;;5.70;2.95;;;;;;;;;;5032240;28;20054;-70
2024/02/06 07:14:37;;;;;;;9.48;3.40;;;;;;;;;;5026906;28;20109;-67
2024/02/06 07:17:07;;;;;;;5.20;2.60;;;;;;;;;;5031228;28;20107;-66
2024/02/06 07:19:35;;;;;;;5.38;3.42;;;;;;;;;;5031506;28;20042;-63
2024/02/06 07:22:04;;;;;;;8.50;3.20;;;;;;;;;;5031187;28;20516;-63
2024/02/06 07:24:32;;;;;;;4.50;2.83;;;;;;;;;;5032270;28;20053;-63
2024/02/06 07:27:01;;;;;;;7.53;3.53;;;;;;;;;;5031933;28;20041;-64
2024/02/06 07:29:29;;;;;;;6.00;3.15;;;;;;;;;;5031806;28;20050;-64
2024/02/06 07:31:58;;;;;;;6.28;3.65;;;;;;;;;;5030305;28;20099;-64
2024/02/06 07:34:28;;;;;;;6.60;3.30;;;;;;;;;;5032060;28;20045;-65
2024/02/06 07:36:56;;;;;;;8.63;3.10;;;;;;;;;;5031523;28;20510;-64
2024/02/06 07:39:25;;;;;;;8.52;3.85;;;;;;;;;;5030075;28;20045;-67
2024/02/06 07:41:54;;;;;;;7.57;3.65;;;;;;;;;;5028414;28;20338;-65
2024/02/06 07:44:23;;;;;;;5.32;3.22;;;;;;;;;;5043245;28;20044;-61
2024/02/06 07:46:51;;;;;;;8.93;4.07;;;;;;;;;;5031866;28;20049;-63
2024/02/06 07:49:20;;;;;;;7.40;3.55;;;;;;;;;;5016533;28;20053;-65
2024/02/06 07:51:50;;;;;;;5.32;3.05;;;;;;;;;;5031040;28;20502;-64
2024/02/06 07:54:18;;;;;;;6.97;3.85;;;;;;;;;;5026462;28;20049;-66
2024/02/06 07:56:47;;;;;;;8.27;3.83;;;;;;;;;;5032122;28;20486;-65
2024/02/06 07:59:16;;;;;;;5.85;3.03;;;;;;;;;;5031266;28;20049;-62
2024/02/06 08:01:44;;;;;;;7.88;3.55;;;;;;;;;;5027123;28;20037;-67
2024/02/06 08:04:13;;;;;;;10.18;4.05;;;;;;;;;;5028350;28;20051;-65
2024/02/06 08:06:41;;;;;;;6.68;3.38;;;;;;;;;;5028450;28;20417;-63
2024/02/06 08:09:11;;;;;;;6.70;3.95;;;;;;;;;;5029728;28;20187;-63
2024/02/06 08:11:40;;;;;;;4.85;3.15;;;;;;;;;;5027832;28;20041;-61
2024/02/06 08:14:12;;;;;;;8.20;3.33;;;;;;;;;;5028760;28;20049;-63
2024/02/06 08:16:41;;;;;;;7.57;3.03;;;;;;;;;;5026330;28;20132;-65
2024/02/06 08:19:09;;;;;;;9.52;3.83;;;;;;;;;;5027269;28;20056;-63
2024/02/06 08:21:38;;;;;;;8.35;3.65;;;;;;;;;;5023128;28;20071;-63
2024/02/06 08:24:07;;;;;;;8.95;3.83;;;;;;;;;;5031347;28;20049;-64
2024/02/06 08:26:37;;;;;;;5.65;3.38;;;;;;;;;;5029343;28;20126;-64
2024/02/06 08:29:05;;;;;;;4.85;2.80;;;;;;;;;;5029631;28;20053;-70
2024/02/06 08:31:34;;;;;;;7.15;3.35;;;;;;;;;;5029277;28;20133;-68
2024/02/06 08:34:02;;;;;;;5.38;3.60;;;;;;;;;;5029750;28;20380;-63
2024/02/06 08:36:31;;;;;;;9.18;3.70;;;;;;;;;;5018508;28;20395;-64
2024/02/06 08:38:59;;;;;;;7.45;3.58;;;;;;;;;;5028978;28;20049;-64
2024/02/06 08:41:28;;;;;;;5.95;3.60;;;;;;;;;;5021910;28;20053;-69
2024/02/06 08:44:00;;;;;;;7.30;3.40;;;;;;;;;;5026599;28;20698;-65
2024/02/06 08:46:28;;;;;;;8.07;3.17;;;;;;;;;;5029111;28;20196;-64
2024/02/06 08:48:59;;;;;;;4.63;3.40;;;;;;;;;;5028573;28;20053;-66
2024/02/06 08:51:27;;;;;;;7.78;3.50;;;;;;;;;;5029667;28;20482;-64
2024/02/06 08:53:56;;;;;;;5.35;2.90;;;;;;;;;;5028045;28;20557;-65
2024/02/06 08:56:26;;;;;;;4.45;2.42;;;;;;;;;;5027391;28;20052;-65
2024/02/06 08:58:55;;;;;;;5.85;2.92;;;;;;;;;;5028452;28;20410;-68
2024/02/06 09:01:25;;;;;;;5.10;3.10;;;;;;;;;;5030025;28;20050;-64
2024/02/06 09:03:54;;;;;;;6.15;2.75;;;;;;;;;;5029511;28;20383;-67
2024/02/06 09:06:31;;;;;;;9.10;3.13;;;;;;;;;;5029913;28;20087;-65
2024/02/06 09:09:00;;;;;;;5.63;2.67;;;;;;;;;;5028480;28;20516;-64
2024/02/06 09:11:29;;;;;;;5.95;2.80;;;;;;;;;;5029943;28;20064;-66
2024/02/06 09:13:57;;;;;;;4.95;2.65;;;;;;;;;;5029626;28;20076;-64
2024/02/06 09:16:27;;;;;;;6.10;2.65;;;;;;;;;;5025834;28;20049;-63
2024/02/06 09:18:56;;;;;;;5.00;2.90;;;;;;;;;;5028219;28;20056;-63
2024/02/06 09:21:27;;;;;;;6.05;3.05;;;;;;;;;;5028144;28;20104;-65
2024/02/06 09:23:55;;;;;;;5.43;2.65;;;;;;;;;;5030098;28;20061;-64
2024/02/06 09:26:24;;;;;;;5.00;2.65;;;;;;;;;;5028992;28;20050;-63
2024/02/06 09:28:52;;;;;;;7.40;2.85;;;;;;;;;;5028779;28;20046;-64
2024/02/06 09:31:21;;;;;;;7.13;2.30;;;;;;;;;;5028299;28;20560;-67
2024/02/06 09:33:52;;;;;;;6.10;2.38;;;;;;;;;;5023527;28;20049;-61
2024/02/06 09:36:22;;;;;;;6.32;2.67;;;;;;;;;;5029273;28;20057;-62
2024/02/06 09:38:50;;;;;;;5.05;2.60;;;;;;;;;;5029082;28;20465;-62
2024/02/06 09:41:21;;;;;;;5.53;3.08;;;;;;;;;;5029320;28;20045;-64
2024/02/06 09:43:51;;;;;;;5.05;2.63;;;;;;;;;;5029600;28;20103;-66
2024/02/06 09:46:20;;;;;;;5.80;2.85;;;;;;;;;;5028156;28;20065;-62
2024/02/06 09:48:49;;;;;;;6.25;2.60;;;;;;;;;;5029236;28;20057;-63
2024/02/06 09:51:19;;;;;;;3.63;2.47;;;;;;;;;;5031987;28;20053;-65
2024/02/06 09:53:47;;;;;;;5.60;2.75;;;;;;;;;;5027119;28;20041;-63
2024/02/06 09:56:16;;;;;;;5.47;2.70;;;;;;;;;;5027601;28;20049;-67
2024/02/06 09:58:44;;;;;;;5.32;2.35;;;;;;;;;;5016189;28;20129;-65
2024/02/06 10:01:13;;;;;;;6.25;3.10;;;;;;;;;;5026067;28;20046;-64
2024/02/06 10:03:44;;;;;;;3.08;2.28;;;;;;;;;;5026414;28;20073;-62
2024/02/06 10:06:13;;;;;;;4.95;2.25;;;;;;;;;;5028149;28;20172;-67
2024/02/06 10:08:45;;;;;;;3.63;2.17;;;;;;;;;;5028335;28;20057;-65
2024/02/06 10:11:15;;;;;;;5.68;2.67;;;;;;;;;;5028379;28;20050;-64
2024/02/06 10:13:44;;;;;;;7.22;2.47;;;;;;;;;;5028997;28;20053;-62
2024/02/06 10:16:12;;;;;;;6.18;2.78;;;;;;;;;;5028210;28;20077;-65
2024/02/06 10:18:52;;;;;;;5.50;2.80;;;;;;;;;;5028199;28;20128;-65
2024/02/06 10:21:20;;;;;;;6.38;2.78;;;;;;;;;;5044789;28;20050;-67
2024/02/06 10:24:00;;;;;;;3.38;2.38;;;;;;;;;;5023978;28;21209;-62
2024/02/06 10:26:28;;;;;;;4.75;2.40;;;;;;;;;;5024432;28;20092;-65
2024/02/06 10:29:06;;;;;;;8.35;2.50;;;;;;;;;;5028165;28;20516;-70
2024/02/06 10:31:35;;;;;;;5.93;2.58;;;;;;;;;;5026854;28;20050;-63
2024/02/06 10:34:11;;;;;;;4.10;2.22;;;;;;;;;;5027498;28;20052;-64
2024/02/06 10:36:39;;;;;;;3.63;2.28;;;;;;;;;;5028337;28;20053;-64
2024/02/06 10:39:11;;;;;;;6.95;2.05;;;;;;;;;;5025556;28;20497;-65
2024/02/06 10:41:40;;;;;;;5.05;2.60;;;;;;;;;;5026970;28;20053;-64
2024/02/06 10:44:29;;;;;;;5.70;2.28;;;;;;;;;;5028188;28;20135;-65
2024/02/06 10:47:01;;;;;;;6.40;2.50;;;;;;;;;;5027690;28;20412;-64
2024/02/06 10:49:29;;;;;;;6.40;2.70;;;;;;;;;;5016093;28;20068;-68
2024/02/06 10:52:05;;;;;;;4.10;2.53;;;;;;;;;;5025565;28;20131;-65
2024/02/06 10:54:37;;;;;;;6.30;2.70;;;;;;;;;;5028019;28;20185;-72
2024/02/06 10:57:06;;;;;;;5.68;2.30;;;;;;;;;;5027095;28;20402;-62
2024/02/06 10:59:42;;;;;;;4.82;2.63;;;;;;;;;;5027747;28;20042;-63
2024/02/06 11:02:15;;;;;;;5.10;1.92;;;;;;;;;;5018399;28;20038;-66
2024/02/06 11:04:44;;;;;;;7.45;2.28;;;;;;;;;;5027997;28;20080;-64
2024/02/06 11:07:15;;;;;;;4.70;2.08;;;;;;;;;;5027103;28;20062;-62
2024/02/06 11:09:46;;;;;;;7.85;2.35;;;;;;;;;;5026906;28;20136;-62
2024/02/06 11:12:16;;;;;;;3.22;1.90;;;;;;;;;;5027819;28;20053;-63
2024/02/06 11:15:05;;;;;;;5.38;2.20;;;;;;;;;;5027726;28;20041;-67
2024/02/06 11:17:34;;;;;;;5.30;2.28;;;;;;;;;;5028035;28;20056;-63
2024/02/06 11:20:05;;;;;;;5.38;2.05;;;;;;;;;;5027908;28;20132;-65
2024/02/06 11:22:37;;;;;;;5.13;2.00;;;;;;;;;;5023097;28;20049;-65
2024/02/06 11:25:09;;;;;;;3.95;1.95;;;;;;;;;;5028548;28;20176;-69
2024/02/06 11:27:40;;;;;;;10.45;2.58;;;;;;;;;;5027069;28;20144;-66
2024/02/06 11:30:09;;;;;;;3.83;2.40;;;;;;;;;;5027480;28;20060;-64
2024/02/06 11:32:37;;;;;;;4.13;2.00;;;;;;;;;;5028771;28;20116;-65
2024/02/06 11:35:06;;;;;;;4.55;2.00;;;;;;;;;;5028030;28;20095;-65
2024/02/06 11:37:35;;;;;;;6.80;2.45;;;;;;;;;;5027759;28;20111;-66
2024/02/06 11:40:05;;;;;;;6.25;2.00;;;;;;;;;;5026679;28;20056;-67
2024/02/06 11:42:36;;;;;;;4.13;2.15;;;;;;;;;;5031189;28;20053;-63
2024/02/06 11:45:05;;;;;;;4.57;2.30;;;;;;;;;;5031256;28;20072;-66
2024/02/06 11:47:33;;;;;;;6.63;2.30;;;;;;;;;;5031782;28;20158;-64
2024/02/06 11:50:09;;;;;;;4.63;2.05;;;;;;;;;;5030966;28;20045;-70
2024/02/06 11:52:37;;;;;;;6.63;2.60;;;;;;;;;;5022969;28;20465;-66
2024/02/06 11:55:06;;;;;;;5.50;2.20;;;;;;;;;;5031785;28;20049;-63
2024/02/06 11:57:36;;;;;;;3.38;2.30;;;;;;;;;;5031842;28;20046;-63
2024/02/06 12:00:05;;;;;;;4.53;2.10;;;;;;;;;;5029720;28;20533;-65
2024/02/06 12:02:34;;;;;;;6.22;2.42;;;;;;;;;;5030206;28;20048;-66
2024/02/06 12:05:06;;;;;;;9.13;2.55;;;;;;;;;;5030892;28;20455;-64
2024/02/06 12:07:36;;;;;;;5.10;2.28;;;;;;;;;;5030221;28;20046;-63
2024/02/06 12:10:06;;;;;;;4.88;2.15;;;;;;;;;;5030847;28;20076;-63
2024/02/06 12:12:37;;;;;;;5.03;2.40;;;;;;;;;;5030634;28;20154;-62
2024/02/06 12:15:06;;;;;;;4.47;1.90;;;;;;;;;;5030691;28;20042;-65
2024/02/06 12:17:35;;;;;;;5.22;2.03;;;;;;;;;;5030571;28;20054;-63
2024/02/06 12:20:05;;;;;;;4.22;2.13;;;;;;;;;;5030881;28;20049;-64
2024/02/06 12:22:36;;;;;;;3.50;2.35;;;;;;;;;;5030770;28;20065;-67
2024/02/06 12:25:05;;;;;;;5.82;2.08;;;;;;;;;;5031040;28;20049;-64
2024/02/06 12:27:38;;;;;;;4.78;2.20;;;;;;;;;;5030888;28;20125;-70
2024/02/06 12:30:09;;;;;;;2.72;1.83;;;;;;;;;;5032895;28;20513;-64
2024/02/06 12:32:37;;;;;;;6.00;2.40;;;;;;;;;;5030672;28;20050;-63
2024/02/06 12:35:06;;;;;;;2.40;1.75;;;;;;;;;;5031192;28;20144;-65
2024/02/06 12:37:35;;;;;;;3.42;1.80;;;;;;;;;;5030576;28;20045;-67
2024/02/06 12:40:04;;;;;;;7.43;2.33;;;;;;;;;;5024844;28;20049;-65
2024/02/06 12:42:32;;;;;;;6.32;2.10;;;;;;;;;;5027598;28;20480;-64
2024/02/06 12:45:03;;;;;;;4.60;1.85;;;;;;;;;;5029564;28;20045;-64
2024/02/06 12:47:33;;;;;;;5.20;2.17;;;;;;;;;;5032391;28;20111;-64
2024/02/06 12:50:02;;;;;;;5.90;2.20;;;;;;;;;;5029544;28;20556;-68
2024/02/06 12:52:35;;;;;;;4.07;2.25;;;;;;;;;;5029099;28;20132;-68
2024/02/06 12:55:04;;;;;;;5.25;2.45;;;;;;;;;;5029376;28;20045;-64
2024/02/06 12:57:32;;;;;;;4.75;2.22;;;;;;;;;;5028609;28;20269;-63
2024/02/06 13:00:03;;;;;;;3.58;2.08;;;;;;;;;;5029707;28;20507;-65
2024/02/06 13:02:32;;;;;;;9.05;2.65;;;;;;;;;;5029481;28;20037;-63
2024/02/06 13:05:08;;;;;;;3.65;2.10;;;;;;;;;;5030015;28;20538;-65
2024/02/06 13:07:37;;;;;;;3.40;2.22;;;;;;;;;;5028889;28;20477;-65
2024/02/06 13:10:07;;;;;;;4.60;2.20;;;;;;;;;;5029082;28;20038;-63
2024/02/06 13:12:36;;;;;;;6.97;2.17;;;;;;;;;;5029168;28;20045;-68
2024/02/06 13:15:06;;;;;;;4.60;2.00;;;;;;;;;;5030130;28;20061;-66
2024/02/06 13:17:36;;;;;;;4.72;2.78;;;;;;;;;;5027397;28;20548;-64
2024/02/06 13:20:08;;;;;;;7.43;2.33;;;;;;;;;;5036236;28;20056;-64
2024/02/06 13:22:39;;;;;;;5.43;2.30;;;;;;;;;;5021748;28;20050;-67
2024/02/06 13:25:08;;;;;;;3.22;1.95;;;;;;;;;;5029790;28;20060;-65
2024/02/06 13:27:37;;;;;;;5.10;1.92;;;;;;;;;;5028637;28;20081;-71
2024/02/06 13:30:06;;;;;;;4.47;2.50;;;;;;;;;;5033545;28;20049;-64
2024/02/06 13:32:36;;;;;;;2.67;2.08;;;;;;;;;;5028798;28;20057;-65
2024/02/06 13:35:05;;;;;;;4.00;2.35;;;;;;;;;;5030117;28;20045;-67
2024/02/06 13:37:35;;;;;;;4.30;2.63;;;;;;;;;;5033190;28;20565;-64
2024/02/06 13:40:05;;;;;;;3.80;2.15;;;;;;;;;;5029400;28;20050;-71
2024/02/06 13:42:34;;;;;;;5.60;2.25;;;;;;;;;;5034064;28;20051;-66
2024/02/06 13:45:03;;;;;;;4.13;2.03;;;;;;;;;;5031640;28;20505;-69
2024/02/06 13:47:32;;;;;;;3.60;2.30;;;;;;;;;;5026624;28;20140;-67
2024/02/06 13:50:02;;;;;;;5.38;2.33;;;;;;;;;;5027439;28;20144;-66
2024/02/06 13:52:32;;;;;;;3.35;2.08;;;;;;;;;;5029538;28;20060;-68
2024/02/06 13:55:00;;;;;;;6.03;2.17;;;;;;;;;;5029787;28;20115;-69
2024/02/06 13:57:29;;;;;;;4.40;2.65;;;;;;;;;;5030116;28;20048;-65
2024/02/06 13:59:57;;;;;;;3.13;2.03;;;;;;;;;;5028206;28;20046;-63
2024/02/06 14:02:26;;;;;;;4.53;2.28;;;;;;;;;;5028282;28;20564;-62
2024/02/06 14:04:54;;;;;;;5.03;2.50;;;;;;;;;;5025484;28;20049;-62
2024/02/06 14:07:24;;;;;;;4.10;2.10;;;;;;;;;;5027367;28;20049;-61
2024/02/06 14:09:53;;;;;;;4.10;2.60;;;;;;;;;;5029262;28;20139;-65
2024/02/06 14:12:21;;;;;;;5.25;2.45;;;;;;;;;;5029416;28;20053;-64
2024/02/06 14:14:59;;;;;;;6.32;2.22;;;;;;;;;;5025214;28;20089;-70
2024/02/06 14:17:27;;;;;;;4.03;2.60;;;;;;;;;;5024853;28;20132;-68
2024/02/06 14:19:56;;;;;;;7.22;2.10;;;;;;;;;;5028410;28;20048;-67
2024/02/06 14:22:26;;;;;;;6.30;2.20;;;;;;;;;;5028661;28;20107;-63
2024/02/06 14:24:54;;;;;;;6.68;2.60;;;;;;;;;;5029028;28;20139;-66
2024/02/06 14:27:23;;;;;;;5.38;2.50;;;;;;;;;;5028791;28;20053;-65
2024/02/06 14:29:52;;;;;;;5.88;2.55;;;;;;;;;;5027677;28;20045;-68
2024/02/06 14:32:20;;;;;;;6.60;2.40;;;;;;;;;;5027449;28;20045;-64
2024/02/06 14:34:49;;;;;;;5.88;2.42;;;;;;;;;;5029299;28;20486;-62
2024/02/06 14:37:18;;;;;;;3.70;2.33;;;;;;;;;;5019351;28;20041;-69
2024/02/06 14:39:48;;;;;;;7.05;2.65;;;;;;;;;;5024902;28;20132;-71
2024/02/06 14:42:16;;;;;;;5.78;2.55;;;;;;;;;;5029633;28;20045;-66
2024/02/06 14:44:45;;;;;;;7.22;2.20;;;;;;;;;;5027224;28;20498;-63
2024/02/06 14:47:19;;;;;;;4.85;2.30;;;;;;;;;;5028275;28;20104;-65
2024/02/06 14:49:48;;;;;;;8.35;2.58;;;;;;;;;;5028422;28;20049;-66
2024/02/06 14:52:17;;;;;;;4.45;2.45;;;;;;;;;;5028135;28;20057;-65
2024/02/06 14:54:45;;;;;;;3.90;2.40;;;;;;;;;;5023920;28;20057;-64